Time;durP1;ratioP1;P1;durP2;ratioP2;P2;SDS_P1;SDS_P2;PMS_P1;PMS_P2;Temp;Humidity;BMP_temperature;BMP_pressure;BME280_temperature;BME280_humidity;BME280_pressure;Samples;Min_cycle;Max_cycle;Signal;HPM_P1;HPM_P2
2021/01/06 00:00:23;;;;;;;;;;;;;;;;;;5033379;28;19909;-75
2021/01/06 00:02:49;;;;;;;;;;;;;;;;;;5032711;28;19909;-76
2021/01/06 00:05:15;;;;;;;;;;;;;;;;;;5032651;28;19908;-75
2021/01/06 00:07:41;;;;;;;;;;;;;;;;;;5036378;28;19909;-75
2021/01/06 00:10:07;;;;;;;;;;;;;;;;;;5036450;28;19909;-75
2021/01/06 00:12:33;;;;;;;;;;;;;;;;;;5036313;28;20380;-75
2021/01/06 00:14:59;;;;;;;;;;;;;;;;;;5036233;28;19912;-74
2021/01/06 00:17:25;;;;;;;;;;;;;;;;;;5036273;28;19909;-74
2021/01/06 00:19:51;;;;;;;;;;;;;;;;;;5036039;28;20026;-74
2021/01/06 00:22:17;;;;;;;;;;;;;;;;;;5034827;28;19991;-74
2021/01/06 00:24:43;;;;;;;;;;;;;;;;;;5038382;28;19909;-74
2021/01/06 00:27:09;;;;;;;;;;;;;;;;;;5036077;28;20458;-74
2021/01/06 00:29:35;;;;;;;;;;;;;;;;;;5036122;28;19956;-74
2021/01/06 00:32:01;;;;;;;;;;;;;;;;;;5036067;28;19913;-75
2021/01/06 00:34:27;;;;;;;;;;;;;;;;;;5036428;28;20176;-75
2021/01/06 00:36:53;;;;;;;;;;;;;;;;;;5036131;28;19960;-75
2021/01/06 00:39:19;;;;;;;;;;;;;;;;;;5035833;28;20402;-75
2021/01/06 00:41:46;;;;;;;;;;;;;;;;;;5035833;28;20007;-75
2021/01/06 00:44:12;;;;;;;;;;;;;;;;;;5035931;28;19915;-75
2021/01/06 00:46:38;;;;;;;;;;;;;;;;;;5036222;28;19999;-75
2021/01/06 00:49:04;;;;;;;;;;;;;;;;;;5041377;28;19909;-75
2021/01/06 00:51:30;;;;;;;;;;;;;;;;;;5043827;28;19920;-75
2021/01/06 00:53:56;;;;;;;;;;;;;;;;;;5035787;28;19912;-75
2021/01/06 00:56:22;;;;;;;;;;;;;;;;;;5053387;28;19975;-75
2021/01/06 00:58:48;;;;;;;;;;;;;;;;;;5053770;28;19915;-75
2021/01/06 01:01:14;;;;;;;;;;;;;;;;;;5036755;28;19962;-75
2021/01/06 01:03:40;;;;;;;;;;;;;;;;;;5035721;28;20375;-74
2021/01/06 01:06:06;;;;;;;;;;;;;;;;;;5035636;28;20403;-75
2021/01/06 01:08:32;;;;;;;;;;;;;;;;;;5035508;28;19925;-74
2021/01/06 01:10:58;;;;;;;;;;;;;;;;;;5035633;28;19916;-74
2021/01/06 01:13:24;;;;;;;;;;;;;;;;;;5035524;28;19909;-74
2021/01/06 01:15:49;;;;;;;;;;;;;;;;;;5034593;28;19960;-75
2021/01/06 01:18:15;;;;;;;;;;;;;;;;;;5064599;28;19909;-74
2021/01/06 01:20:41;;;;;;;;;;;;;;;;;;5035450;28;19919;-75
2021/01/06 01:23:07;;;;;;;;;;;;;;;;;;5035036;28;19916;-75
2021/01/06 01:25:33;;;;;;;;;;;;;;;;;;5035655;28;20352;-74
2021/01/06 01:27:59;;;;;;;;;;;;;;;;;;5034636;28;19951;-75
2021/01/06 01:30:25;;;;;;;;;;;;;;;;;;5035026;28;19951;-74
2021/01/06 01:32:51;;;;;;;;;;;;;;;;;;5035032;28;19944;-75
2021/01/06 01:35:17;;;;;;;;;;;;;;;;;;5035353;28;19952;-74
2021/01/06 01:37:43;;;;;;;;;;;;;;;;;;5040572;28;19967;-74
2021/01/06 01:40:09;;;;;;;;;;;;;;;;;;5036156;28;19956;-75
2021/01/06 01:42:35;;;;;;;;;;;;;;;;;;5034969;28;19917;-75
2021/01/06 01:45:01;;;;;;;;;;;;;;;;;;5058666;28;19908;-75
2021/01/06 01:47:27;;;;;;;;;;;;;;;;;;5041903;28;19908;-74
2021/01/06 01:49:52;;;;;;;;;;;;;;;;;;5035009;28;19909;-74
2021/01/06 01:52:18;;;;;;;;;;;;;;;;;;5034677;28;20340;-74
2021/01/06 01:54:44;;;;;;;;;;;;;;;;;;5034447;28;20367;-75
2021/01/06 01:57:10;;;;;;;;;;;;;;;;;;5034451;28;20383;-74
2021/01/06 01:59:36;;;;;;;;;;;;;;;;;;5033982;28;20375;-74
2021/01/06 02:02:02;;;;;;;;;;;;;;;;;;5034220;28;19982;-75
2021/01/06 02:04:28;;;;;;;;;;;;;;;;;;5034223;28;19909;-75
2021/01/06 02:06:54;;;;;;;;;;;;;;;;;;5033318;28;20386;-74
2021/01/06 02:09:20;;;;;;;;;;;;;;;;;;5048223;28;20404;-74
2021/01/06 02:11:46;;;;;;;;;;;;;;;;;;5034350;28;20326;-75
2021/01/06 02:14:12;;;;;;;;;;;;;;;;;;5034108;28;20379;-74
2021/01/06 02:16:38;;;;;;;;;;;;;;;;;;5034302;28;20294;-75
2021/01/06 02:19:04;;;;;;;;;;;;;;;;;;5033971;28;19908;-74
2021/01/06 02:21:30;;;;;;;;;;;;;;;;;;5031138;28;20374;-74
2021/01/06 02:23:55;;;;;;;;;;;;;;;;;;5044562;28;19909;-74
2021/01/06 02:26:21;;;;;;;;;;;;;;;;;;5034213;28;20055;-74
2021/01/06 02:28:47;;;;;;;;;;;;;;;;;;5033581;28;19909;-74
2021/01/06 02:31:13;;;;;;;;;;;;;;;;;;5033873;28;20468;-74
2021/01/06 02:33:39;;;;;;;;;;;;;;;;;;5034012;28;20003;-75
2021/01/06 02:36:05;;;;;;;;;;;;;;;;;;5034001;28;19956;-75
2021/01/06 02:38:31;;;;;;;;;;;;;;;;;;5040467;28;19963;-74
2021/01/06 02:40:57;;;;;;;;;;;;;;;;;;5037579;28;19913;-74
2021/01/06 02:43:23;;;;;;;;;;;;;;;;;;5034055;28;19941;-74
2021/01/06 02:45:49;;;;;;;;;;;;;;;;;;5050894;28;19943;-74
2021/01/06 02:48:15;;;;;;;;;;;;;;;;;;5039907;28;19951;-74
2021/01/06 02:50:41;;;;;;;;;;;;;;;;;;5033703;28;19913;-73
2021/01/06 02:53:07;;;;;;;;;;;;;;;;;;5033526;28;20000;-73
2021/01/06 02:55:33;;;;;;;;;;;;;;;;;;5051374;28;19967;-73
2021/01/06 02:57:59;;;;;;;;;;;;;;;;;;5034042;28;19909;-73
2021/01/06 03:00:25;;;;;;;;;;;;;;;;;;5050207;28;20367;-73
2021/01/06 03:02:51;;;;;;;;;;;;;;;;;;5033683;28;20004;-73
2021/01/06 03:05:17;;;;;;;;;;;;;;;;;;5033523;28;19940;-73
2021/01/06 03:07:42;;;;;;;;;;;;;;;;;;5033798;28;19916;-73
2021/01/06 03:10:08;;;;;;;;;;;;;;;;;;5041168;28;19959;-73
2021/01/06 03:12:34;;;;;;;;;;;;;;;;;;5037700;28;19908;-73
2021/01/06 03:15:00;;;;;;;;;;;;;;;;;;5034505;28;19913;-73
2021/01/06 03:17:26;;;;;;;;;;;;;;;;;;5033855;28;19912;-73
2021/01/06 03:19:52;;;;;;;;;;;;;;;;;;5033477;28;19909;-73
2021/01/06 03:22:18;;;;;;;;;;;;;;;;;;5033060;28;19955;-73
2021/01/06 03:24:44;;;;;;;;;;;;;;;;;;5033243;28;19955;-74
2021/01/06 03:27:10;;;;;;;;;;;;;;;;;;5033156;28;19952;-73
2021/01/06 03:29:36;;;;;;;;;;;;;;;;;;5050952;28;19909;-73
2021/01/06 03:32:02;;;;;;;;;;;;;;;;;;5033067;28;19909;-73
2021/01/06 03:34:28;;;;;;;;;;;;;;;;;;5033524;28;19908;-73
2021/01/06 03:36:53;;;;;;;;;;;;;;;;;;5033168;28;19976;-73
2021/01/06 03:39:19;;;;;;;;;;;;;;;;;;5033983;28;19971;-73
2021/01/06 03:41:45;;;;;;;;;;;;;;;;;;5041023;28;19956;-73
2021/01/06 03:44:11;;;;;;;;;;;;;;;;;;5037117;28;19962;-73
2021/01/06 03:46:37;;;;;;;;;;;;;;;;;;5055062;28;20011;-73
2021/01/06 03:49:03;;;;;;;;;;;;;;;;;;5036827;28;19971;-73
2021/01/06 03:51:29;;;;;;;;;;;;;;;;;;5045652;28;19948;-73
2021/01/06 03:53:55;;;;;;;;;;;;;;;;;;5039482;28;19959;-74
2021/01/06 03:56:21;;;;;;;;;;;;;;;;;;5036581;28;19967;-73
2021/01/06 03:58:47;;;;;;;;;;;;;;;;;;5036587;28;20283;-72
2021/01/06 04:01:13;;;;;;;;;;;;;;;;;;5036773;28;20375;-74
2021/01/06 04:03:39;;;;;;;;;;;;;;;;;;5053737;28;20014;-75
2021/01/06 04:06:04;;;;;;;;;;;;;;;;;;5046464;28;19909;-74
2021/01/06 04:08:30;;;;;;;;;;;;;;;;;;5036651;28;19956;-75
2021/01/06 04:10:57;;;;;;;;;;;;;;;;;;5036738;28;19950;-74
2021/01/06 04:13:23;;;;;;;;;;;;;;;;;;5036935;28;20259;-73
2021/01/06 04:15:49;;;;;;;;;;;;;;;;;;5036560;28;20299;-75
2021/01/06 04:18:14;;;;;;;;;;;;;;;;;;5038246;28;19963;-75
2021/01/06 04:20:41;;;;;;;;;;;;;;;;;;5044089;28;20065;-75
2021/01/06 04:23:07;;;;;;;;;;;;;;;;;;5054254;28;19909;-75
2021/01/06 04:25:36;;;;;;;;;;;;;;;;;;5036231;28;20381;-75
2021/01/06 04:28:02;;;;;;;;;;;;;;;;;;5036170;28;19913;-76
2021/01/06 04:30:27;;;;;;;;;;;;;;;;;;5036219;28;19912;-75
2021/01/06 04:32:53;;;;;;;;;;;;;;;;;;5036020;28;19909;-75
2021/01/06 04:35:19;;;;;;;;;;;;;;;;;;5035905;28;19959;-76
2021/01/06 04:37:45;;;;;;;;;;;;;;;;;;5035863;28;20391;-75
2021/01/06 04:40:11;;;;;;;;;;;;;;;;;;5036178;28;20260;-75
2021/01/06 04:42:37;;;;;;;;;;;;;;;;;;5036093;28;19994;-75
2021/01/06 04:45:03;;;;;;;;;;;;;;;;;;5036242;28;19944;-75
2021/01/06 04:47:29;;;;;;;;;;;;;;;;;;5040054;28;19909;-75
2021/01/06 04:49:55;;;;;;;;;;;;;;;;;;5039741;28;19940;-75
2021/01/06 04:52:21;;;;;;;;;;;;;;;;;;5035807;28;20009;-75
2021/01/06 04:54:47;;;;;;;;;;;;;;;;;;5033217;28;19956;-75
2021/01/06 04:57:13;;;;;;;;;;;;;;;;;;5046442;28;19956;-75
2021/01/06 04:59:39;;;;;;;;;;;;;;;;;;5035439;28;19952;-75
2021/01/06 05:02:05;;;;;;;;;;;;;;;;;;5035574;28;19908;-74
2021/01/06 05:04:30;;;;;;;;;;;;;;;;;;5035374;28;20428;-75
2021/01/06 05:06:56;;;;;;;;;;;;;;;;;;5036063;28;20350;-75
2021/01/06 05:09:22;;;;;;;;;;;;;;;;;;5035421;28;20407;-75
2021/01/06 05:11:48;;;;;;;;;;;;;;;;;;5037622;28;20291;-75
2021/01/06 05:14:14;;;;;;;;;;;;;;;;;;5037295;28;19948;-76
2021/01/06 05:16:40;;;;;;;;;;;;;;;;;;5035366;28;19963;-75
2021/01/06 05:19:06;;;;;;;;;;;;;;;;;;5052949;28;19916;-75
2021/01/06 05:21:32;;;;;;;;;;;;;;;;;;5035539;28;19909;-75
2021/01/06 05:23:58;;;;;;;;;;;;;;;;;;5053378;28;19967;-76
2021/01/06 05:26:24;;;;;;;;;;;;;;;;;;5035428;28;19948;-76
2021/01/06 05:28:50;;;;;;;;;;;;;;;;;;5034842;28;19909;-76
2021/01/06 05:31:16;;;;;;;;;;;;;;;;;;5034821;28;19909;-75
2021/01/06 05:33:42;;;;;;;;;;;;;;;;;;5035082;28;20006;-76
2021/01/06 05:36:07;;;;;;;;;;;;;;;;;;5034961;28;19978;-75
2021/01/06 05:38:33;;;;;;;;;;;;;;;;;;5038464;28;19947;-75
2021/01/06 05:40:59;;;;;;;;;;;;;;;;;;5039623;28;19956;-75
2021/01/06 05:43:25;;;;;;;;;;;;;;;;;;5035034;28;19963;-75
2021/01/06 05:45:54;;;;;;;;;;;;;;;;;;5034964;28;19913;-75
2021/01/06 05:48:20;;;;;;;;;;;;;;;;;;5034588;28;19913;-75
2021/01/06 05:50:46;;;;;;;;;;;;;;;;;;5034709;28;19916;-75
2021/01/06 05:53:12;;;;;;;;;;;;;;;;;;5035562;28;20395;-75
2021/01/06 05:55:38;;;;;;;;;;;;;;;;;;5053577;28;20012;-75
2021/01/06 05:58:04;;;;;;;;;;;;;;;;;;5036628;28;19955;-75
2021/01/06 06:00:30;;;;;;;;;;;;;;;;;;5036871;28;19913;-73
2021/01/06 06:02:56;;;;;;;;;;;;;;;;;;5035799;28;19909;-73
2021/01/06 06:05:22;;;;;;;;;;;;;;;;;;5052997;28;19920;-73
2021/01/06 06:07:47;;;;;;;;;;;;;;;;;;5034890;28;19913;-73
2021/01/06 06:10:13;;;;;;;;;;;;;;;;;;5038985;28;19908;-74
2021/01/06 06:12:39;;;;;;;;;;;;;;;;;;5038273;28;20423;-73
2021/01/06 06:15:06;;;;;;;;;;;;;;;;;;5035080;28;20398;-73
2021/01/06 06:17:31;;;;;;;;;;;;;;;;;;5034518;28;19913;-73
2021/01/06 06:19:57;;;;;;;;;;;;;;;;;;5052663;28;20387;-73
2021/01/06 06:22:23;;;;;;;;;;;;;;;;;;5033579;28;19952;-73
2021/01/06 06:24:49;;;;;;;;;;;;;;;;;;5040650;28;19915;-74
2021/01/06 06:27:15;;;;;;;;;;;;;;;;;;5038977;28;19909;-73
2021/01/06 06:29:41;;;;;;;;;;;;;;;;;;5034547;28;19936;-74
2021/01/06 06:32:07;;;;;;;;;;;;;;;;;;5035092;28;20433;-74
2021/01/06 06:34:33;;;;;;;;;;;;;;;;;;5035254;28;20577;-74
2021/01/06 06:36:59;;;;;;;;;;;;;;;;;;5051184;28;20493;-75
2021/01/06 06:39:25;;;;;;;;;;;;;;;;;;5034181;28;20291;-74
2021/01/06 06:41:53;;;;;;;;;;;;;;;;;;5034235;28;19913;-75
2021/01/06 06:44:19;;;;;;;;;;;;;;;;;;5034312;28;19908;-74
2021/01/06 06:46:45;;;;;;;;;;;;;;;;;;5037607;28;19909;-74
2021/01/06 06:49:11;;;;;;;;;;;;;;;;;;5034552;28;20512;-74
2021/01/06 06:51:37;;;;;;;;;;;;;;;;;;5037051;28;20319;-74
2021/01/06 06:54:03;;;;;;;;;;;;;;;;;;5037066;28;19910;-73
2021/01/06 06:56:29;;;;;;;;;;;;;;;;;;5060304;28;19932;-74
2021/01/06 06:58:55;;;;;;;;;;;;;;;;;;5039788;28;19909;-74
2021/01/06 07:01:21;;;;;;;;;;;;;;;;;;5057025;28;20418;-73
2021/01/06 07:03:47;;;;;;;;;;;;;;;;;;5056396;28;19909;-75
2021/01/06 07:06:13;;;;;;;;;;;;;;;;;;5045489;28;19993;-75
2021/01/06 07:08:39;;;;;;;;;;;;;;;;;;5036181;28;19909;-74
2021/01/06 07:11:07;;;;;;;;;;;;;;;;;;5057291;28;19916;-74
2021/01/06 07:13:33;;;;;;;;;;;;;;;;;;5038130;28;19909;-73
2021/01/06 07:15:59;;;;;;;;;;;;;;;;;;5056300;28;19912;-73
2021/01/06 07:18:25;;;;;;;;;;;;;;;;;;5018773;28;20287;-74
2021/01/06 07:20:51;;;;;;;;;;;;;;;;;;5053084;28;19913;-73
2021/01/06 07:23:17;;;;;;;;;;;;;;;;;;5043798;28;19909;-74
2021/01/06 07:25:43;;;;;;;;;;;;;;;;;;5038433;28;19908;-73
2021/01/06 07:28:14;;;;;;;;;;;;;;;;;;5047285;28;19916;-73
2021/01/06 07:30:40;;;;;;;;;;;;;;;;;;5036469;28;19952;-73
2021/01/06 07:33:06;;;;;;;;;;;;;;;;;;5036329;28;19916;-73
2021/01/06 07:35:32;;;;;;;;;;;;;;;;;;5037703;28;19909;-73
2021/01/06 07:37:58;;;;;;;;;;;;;;;;;;5055254;28;19916;-74
2021/01/06 07:40:24;;;;;;;;;;;;;;;;;;5038184;28;19916;-73
2021/01/06 07:42:50;;;;;;;;;;;;;;;;;;5049983;28;19912;-74
2021/01/06 07:45:16;;;;;;;;;;;;;;;;;;5025922;28;19952;-73
2021/01/06 07:47:41;;;;;;;;;;;;;;;;;;5056107;23;20021;-68
2021/01/06 07:50:07;;;;;;;;;;;;;;;;;;5046024;28;20000;-68
2021/01/06 07:52:34;;;;;;;;;;;;;;;;;;5045467;28;20440;-68
2021/01/06 07:55:00;;;;;;;;;;;;;;;;;;5043561;28;20348;-68
2021/01/06 07:57:26;;;;;;;;;;;;;;;;;;5042690;28;20006;-68
2021/01/06 07:59:52;;;;;;;;;;;;;;;;;;5044247;28;19980;-68
2021/01/06 08:02:19;;;;;;;;;;;;;;;;;;5043506;28;19909;-69
2021/01/06 08:04:45;;;;;;;;;;;;;;;;;;5042555;28;19931;-69
2021/01/06 08:07:11;;;;;;;;;;;;;;;;;;5042745;28;20488;-70
2021/01/06 08:09:37;;;;;;;;;;;;;;;;;;5042727;28;20000;-69
2021/01/06 08:12:03;;;;;;;;;;;;;;;;;;5043817;28;19909;-68
2021/01/06 08:14:29;;;;;;;;;;;;;;;;;;5043092;28;19967;-68
2021/01/06 08:16:55;;;;;;;;;;;;;;;;;;5043378;28;19955;-68
2021/01/06 08:19:21;;;;;;;;;;;;;;;;;;5042899;28;19909;-69
2021/01/06 08:21:47;;;;;;;;;;;;;;;;;;5048415;28;20345;-69
2021/01/06 08:24:13;;;;;;;;;;;;;;;;;;5050595;28;20257;-68
2021/01/06 08:26:39;;;;;;;;;;;;;;;;;;5045717;28;19956;-68
2021/01/06 08:29:04;;;;;;;;;;;;;;;;;;5052976;28;19956;-69
2021/01/06 08:31:30;;;;;;;;;;;;;;;;;;5039645;28;20007;-69
2021/01/06 08:33:56;;;;;;;;;;;;;;;;;;5042817;28;20407;-69
2021/01/06 08:36:22;;;;;;;;;;;;;;;;;;5043092;28;20388;-68
2021/01/06 08:38:48;;;;;;;;;;;;;;;;;;5042615;28;20280;-68
2021/01/06 08:41:14;;;;;;;;;;;;;;;;;;5034972;28;19910;-69
2021/01/06 08:43:40;;;;;;;;;;;;;;;;;;5034251;28;20308;-69
2021/01/06 08:46:06;;;;;;;;;;;;;;;;;;5033152;28;20388;-69
2021/01/06 08:48:32;;;;;;;;;;;;;;;;;;5037766;28;19928;-69
2021/01/06 08:50:58;;;;;;;;;;;;;;;;;;5043000;28;19994;-69
2021/01/06 08:53:24;;;;;;;;;;;;;;;;;;5065989;28;19967;-69
2021/01/06 08:55:50;;;;;;;;;;;;;;;;;;5045405;28;20007;-68
2021/01/06 08:58:16;;;;;;;;;;;;;;;;;;5053610;28;19955;-69
2021/01/06 09:00:42;;;;;;;;;;;;;;;;;;5054133;28;19913;-69
2021/01/06 09:03:08;;;;;;;;;;;;;;;;;;5053537;28;20328;-69
2021/01/06 09:05:34;;;;;;;;;;;;;;;;;;5053858;28;19924;-68
2021/01/06 09:08:00;;;;;;;;;;;;;;;;;;5053369;28;19909;-69
2021/01/06 09:10:26;;;;;;;;;;;;;;;;;;5052302;28;19909;-68
2021/01/06 09:12:52;;;;;;;;;;;;;;;;;;5044870;28;19909;-68
2021/01/06 09:15:18;;;;;;;;;;;;;;;;;;5052358;28;19956;-68
2021/01/06 09:17:44;;;;;;;;;;;;;;;;;;5052032;28;20342;-68
2021/01/06 09:20:10;;;;;;;;;;;;;;;;;;5046889;28;20003;-68
2021/01/06 09:22:36;;;;;;;;;;;;;;;;;;5045431;28;20285;-68
2021/01/06 09:25:02;;;;;;;;;;;;;;;;;;5053338;28;19917;-68
2021/01/06 09:27:28;;;;;;;;;;;;;;;;;;5033284;28;19919;-68
2021/01/06 09:29:54;;;;;;;;;;;;;;;;;;5033388;28;20430;-68
2021/01/06 09:32:20;;;;;;;;;;;;;;;;;;5033011;28;19956;-68
2021/01/06 09:34:46;;;;;;;;;;;;;;;;;;5033639;28;19913;-68
2021/01/06 09:37:12;;;;;;;;;;;;;;;;;;5035994;28;19917;-68
2021/01/06 09:39:38;;;;;;;;;;;;;;;;;;5040254;28;19915;-68
2021/01/06 09:42:04;;;;;;;;;;;;;;;;;;5033125;28;19909;-69
2021/01/06 09:44:30;;;;;;;;;;;;;;;;;;5031830;28;19952;-69
2021/01/06 09:46:56;;;;;;;;;;;;;;;;;;5033124;28;20004;-70
2021/01/06 09:49:22;;;;;;;;;;;;;;;;;;5032864;28;19964;-68
2021/01/06 09:51:48;;;;;;;;;;;;;;;;;;5032994;28;20000;-68
2021/01/06 09:54:14;;;;;;;;;;;;;;;;;;5031236;28;19909;-69
2021/01/06 09:56:40;;;;;;;;;;;;;;;;;;5033087;28;20379;-69
2021/01/06 09:59:05;;;;;;;;;;;;;;;;;;5032784;28;20265;-68
2021/01/06 10:01:31;;;;;;;;;;;;;;;;;;5032670;28;19913;-68
2021/01/06 10:03:57;;;;;;;;;;;;;;;;;;5036527;28;20365;-70
2021/01/06 10:06:23;;;;;;;;;;;;;;;;;;5047076;28;19924;-69
2021/01/06 10:08:49;;;;;;;;;;;;;;;;;;5059382;28;19913;-70
2021/01/06 10:11:15;;;;;;;;;;;;;;;;;;5054091;28;19909;-69
2021/01/06 10:13:41;;;;;;;;;;;;;;;;;;5052992;28;19913;-69
2021/01/06 10:16:07;;;;;;;;;;;;;;;;;;5044363;28;19972;-68
2021/01/06 10:18:33;;;;;;;;;;;;;;;;;;5040115;28;20009;-69
2021/01/06 10:20:59;;;;;;;;;;;;;;;;;;5043929;28;19951;-69
2021/01/06 10:23:25;;;;;;;;;;;;;;;;;;5051592;28;19915;-68
2021/01/06 10:25:51;;;;;;;;;;;;;;;;;;5037065;28;19909;-68
2021/01/06 10:28:17;;;;;;;;;;;;;;;;;;5032520;28;19909;-68
2021/01/06 10:30:42;;;;;;;;;;;;;;;;;;5032626;28;19955;-69
2021/01/06 10:33:12;;;;;;;;;;;;;;;;;;5032727;28;19909;-68
2021/01/06 10:35:38;;;;;;;;;;;;;;;;;;5031252;28;19916;-68
2021/01/06 10:38:03;;;;;;;;;;;;;;;;;;5032132;28;19909;-68
2021/01/06 10:40:29;;;;;;;;;;;;;;;;;;5032447;28;20039;-68
2021/01/06 10:42:55;;;;;;;;;;;;;;;;;;5047135;28;20051;-70
2021/01/06 10:45:21;;;;;;;;;;;;;;;;;;5044170;28;20537;-70
2021/01/06 10:47:47;;;;;;;;;;;;;;;;;;5052357;28;19923;-70
2021/01/06 10:50:13;;;;;;;;;;;;;;;;;;5052204;28;19911;-70
2021/01/06 10:52:39;;;;;;;;;;;;;;;;;;5052322;28;19955;-69
2021/01/06 10:55:05;;;;;;;;;;;;;;;;;;5043241;28;19952;-70
2021/01/06 10:57:31;;;;;;;;;;;;;;;;;;5040008;28;20017;-70
2021/01/06 10:59:57;;;;;;;;;;;;;;;;;;5046252;28;19919;-70
2021/01/06 11:02:22;;;;;;;;;;;;;;;;;;5050685;28;19916;-70
2021/01/06 11:04:48;;;;;;;;;;;;;;;;;;5051804;28;20011;-71
2021/01/06 11:07:14;;;;;;;;;;;;;;;;;;5051858;28;20003;-71
2021/01/06 11:09:40;;;;;;;;;;;;;;;;;;5050478;28;19913;-70
2021/01/06 11:12:06;;;;;;;;;;;;;;;;;;5066861;28;19909;-70
2021/01/06 11:14:32;;;;;;;;;;;;;;;;;;5048659;28;19971;-70
2021/01/06 11:16:58;;;;;;;;;;;;;;;;;;5041512;28;19948;-70
2021/01/06 11:19:24;;;;;;;;;;;;;;;;;;5034358;28;19999;-71
2021/01/06 11:21:50;;;;;;;;;;;;;;;;;;5030733;28;20385;-70
2021/01/06 11:24:16;;;;;;;;;;;;;;;;;;5030560;28;20332;-70
2021/01/06 11:26:41;;;;;;;;;;;;;;;;;;5031924;28;20055;-70
2021/01/06 11:29:07;;;;;;;;;;;;;;;;;;5037901;28;19956;-70
2021/01/06 11:31:33;;;;;;;;;;;;;;;;;;5040702;28;19960;-70
2021/01/06 11:33:59;;;;;;;;;;;;;;;;;;5030439;28;20006;-70
2021/01/06 11:36:25;;;;;;;;;;;;;;;;;;5031907;28;19964;-70
2021/01/06 11:38:51;;;;;;;;;;;;;;;;;;5037472;28;19909;-70
2021/01/06 11:41:17;;;;;;;;;;;;;;;;;;5042730;28;19909;-71
2021/01/06 11:43:43;;;;;;;;;;;;;;;;;;5051481;28;19913;-71
2021/01/06 11:46:09;;;;;;;;;;;;;;;;;;5051413;28;19931;-71
2021/01/06 11:48:35;;;;;;;;;;;;;;;;;;5050167;28;19919;-70
2021/01/06 11:51:01;;;;;;;;;;;;;;;;;;5051813;28;19909;-70
2021/01/06 11:53:27;;;;;;;;;;;;;;;;;;5051870;28;19982;-70
2021/01/06 11:55:52;;;;;;;;;;;;;;;;;;5051511;28;20357;-70
2021/01/06 11:58:19;;;;;;;;;;;;;;;;;;5050639;28;19917;-70
2021/01/06 12:00:45;;;;;;;;;;;;;;;;;;5051867;28;19908;-69
2021/01/06 12:03:11;;;;;;;;;;;;;;;;;;5054670;28;19916;-71
2021/01/06 12:05:36;;;;;;;;;;;;;;;;;;5055597;28;19916;-70
2021/01/06 12:08:02;;;;;;;;;;;;;;;;;;5055330;28;20018;-70
2021/01/06 12:10:28;;;;;;;;;;;;;;;;;;5050623;28;20432;-70
2021/01/06 12:12:54;;;;;;;;;;;;;;;;;;5051163;28;19935;-70
2021/01/06 12:15:20;;;;;;;;;;;;;;;;;;5045979;28;20396;-70
2021/01/06 12:17:46;;;;;;;;;;;;;;;;;;5045170;28;19959;-70
2021/01/06 12:20:12;;;;;;;;;;;;;;;;;;5046694;28;19912;-71
2021/01/06 12:22:38;;;;;;;;;;;;;;;;;;5045473;28;19993;-70
2021/01/06 12:25:04;;;;;;;;;;;;;;;;;;5040955;28;20365;-70
2021/01/06 12:27:30;;;;;;;;;;;;;;;;;;5034670;28;19921;-70
2021/01/06 12:29:57;;;;;;;;;;;;;;;;;;5034556;28;19913;-70
2021/01/06 12:32:23;;;;;;;;;;;;;;;;;;5034589;28;20305;-70
2021/01/06 12:34:52;;;;;;;;;;;;;;;;;;5039513;28;19999;-70
2021/01/06 12:37:19;;;;;;;;;;;;;;;;;;5054315;28;19963;-70
2021/01/06 12:39:45;;;;;;;;;;;;;;;;;;5053776;28;19909;-69
2021/01/06 12:42:11;;;;;;;;;;;;;;;;;;5043122;28;19955;-70
2021/01/06 12:44:37;;;;;;;;;;;;;;;;;;5069074;23;19963;-74
2021/01/06 12:47:03;;;;;;;;;;;;;;;;;;5064518;28;20503;-74
2021/01/06 12:49:29;;;;;;;;;;;;;;;;;;5062020;28;20026;-74
2021/01/06 12:51:54;;;;;;;;;;;;;;;;;;5069818;28;20319;-74
2021/01/06 12:54:20;;;;;;;;;;;;;;;;;;5055103;28;19974;-74
2021/01/06 12:56:46;;;;;;;;;;;;;;;;;;5046130;28;19971;-74
2021/01/06 12:59:13;;;;;;;;;;;;;;;;;;5052468;28;19956;-74
2021/01/06 13:01:39;;;;;;;;;;;;;;;;;;5051290;28;19912;-74
2021/01/06 13:04:05;;;;;;;;;;;;;;;;;;5041284;28;19927;-74
2021/01/06 13:06:31;;;;;;;;;;;;;;;;;;5053098;28;19998;-74
2021/01/06 13:08:57;;;;;;;;;;;;;;;;;;5052824;28;19947;-74
2021/01/06 13:11:23;;;;;;;;;;;;;;;;;;5055855;28;19956;-74
2021/01/06 13:13:49;;;;;;;;;;;;;;;;;;5054946;28;19960;-74
2021/01/06 13:16:15;;;;;;;;;;;;;;;;;;5052568;28;20006;-74
2021/01/06 13:18:41;;;;;;;;;;;;;;;;;;5071177;28;20000;-74
2021/01/06 13:21:07;;;;;;;;;;;;;;;;;;5052901;28;19947;-74
2021/01/06 13:23:33;;;;;;;;;;;;;;;;;;5053251;28;19966;-74
2021/01/06 13:25:59;;;;;;;;;;;;;;;;;;5055693;28;19909;-74
2021/01/06 13:28:25;;;;;;;;;;;;;;;;;;5051738;28;20004;-75
2021/01/06 13:30:51;;;;;;;;;;;;;;;;;;5052719;28;19908;-75
2021/01/06 13:33:18;;;;;;;;;;;;;;;;;;5053227;28;19915;-75
2021/01/06 13:35:44;;;;;;;;;;;;;;;;;;5054299;28;20275;-74
2021/01/06 13:38:10;;;;;;;;;;;;;;;;;;5055072;28;20003;-75
2021/01/06 13:40:35;;;;;;;;;;;;;;;;;;5061353;28;19995;-74
2021/01/06 13:43:01;;;;;;;;;;;;;;;;;;5053782;28;19951;-74
2021/01/06 13:45:27;;;;;;;;;;;;;;;;;;5052269;28;19956;-74
2021/01/06 13:47:53;;;;;;;;;;;;;;;;;;5052286;28;20092;-74
2021/01/06 13:50:22;;;;;;;;;;;;;;;;;;5052859;28;20278;-74
2021/01/06 13:52:48;;;;;;;;;;;;;;;;;;5071555;28;19909;-74
2021/01/06 13:55:14;;;;;;;;;;;;;;;;;;5053062;28;19959;-74
2021/01/06 13:57:40;;;;;;;;;;;;;;;;;;5067323;28;19952;-73
2021/01/06 14:00:06;;;;;;;;;;;;;;;;;;5049029;28;20300;-73
2021/01/06 14:02:32;;;;;;;;;;;;;;;;;;5052249;28;19963;-74
2021/01/06 14:04:58;;;;;;;;;;;;;;;;;;5051957;28;19966;-74
2021/01/06 14:07:24;;;;;;;;;;;;;;;;;;5061386;28;19935;-74
2021/01/06 14:09:50;;;;;;;;;;;;;;;;;;5074202;28;19943;-74
2021/01/06 14:12:16;;;;;;;;;;;;;;;;;;5052412;28;19952;-74
2021/01/06 14:14:42;;;;;;;;;;;;;;;;;;5052899;28;19955;-75
2021/01/06 14:17:07;;;;;;;;;;;;;;;;;;5051366;28;19920;-74
2021/01/06 14:19:33;;;;;;;;;;;;;;;;;;5069783;28;19963;-74
2021/01/06 14:21:59;;;;;;;;;;;;;;;;;;5051251;28;19935;-74
2021/01/06 14:24:25;;;;;;;;;;;;;;;;;;5050853;28;20353;-74
2021/01/06 14:26:54;;;;;;;;;;;;;;;;;;5051772;28;20368;-74
2021/01/06 14:29:20;;;;;;;;;;;;;;;;;;5049203;28;19920;-74
2021/01/06 14:31:46;;;;;;;;;;;;;;;;;;5049345;28;19908;-74
2021/01/06 14:34:12;;;;;;;;;;;;;;;;;;5048771;28;19986;-74
2021/01/06 14:36:38;;;;;;;;;;;;;;;;;;5054569;28;19955;-74
2021/01/06 14:39:04;;;;;;;;;;;;;;;;;;5060272;28;19966;-73
2021/01/06 14:41:30;;;;;;;;;;;;;;;;;;5070304;28;19944;-73
2021/01/06 14:43:56;;;;;;;;;;;;;;;;;;5051514;28;20425;-73
2021/01/06 14:46:22;;;;;;;;;;;;;;;;;;5051288;28;19955;-73
2021/01/06 14:48:48;;;;;;;;;;;;;;;;;;5052665;28;19962;-74
2021/01/06 14:51:14;;;;;;;;;;;;;;;;;;5051087;28;19952;-74
2021/01/06 14:53:40;;;;;;;;;;;;;;;;;;5051914;28;19955;-74
2021/01/06 14:56:06;;;;;;;;;;;;;;;;;;5054866;28;19955;-75
2021/01/06 14:58:32;;;;;;;;;;;;;;;;;;5051965;28;19947;-73
2021/01/06 15:00:58;;;;;;;;;;;;;;;;;;5050872;28;19959;-74
2021/01/06 15:03:24;;;;;;;;;;;;;;;;;;5051424;28;19962;-74
2021/01/06 15:05:50;;;;;;;;;;;;;;;;;;5051350;28;20358;-74
2021/01/06 15:08:16;;;;;;;;;;;;;;;;;;5060413;28;19948;-74
2021/01/06 15:10:41;;;;;;;;;;;;;;;;;;5055511;28;19940;-74
2021/01/06 15:13:07;;;;;;;;;;;;;;;;;;5051881;28;20008;-74
2021/01/06 15:15:33;;;;;;;;;;;;;;;;;;5051165;28;20373;-74
2021/01/06 15:18:00;;;;;;;;;;;;;;;;;;5050647;28;19956;-73
2021/01/06 15:20:25;;;;;;;;;;;;;;;;;;5051962;28;20385;-74
2021/01/06 15:22:51;;;;;;;;;;;;;;;;;;5050551;28;19959;-74
2021/01/06 15:25:17;;;;;;;;;;;;;;;;;;5050631;28;19956;-74
2021/01/06 15:27:43;;;;;;;;;;;;;;;;;;5050421;28;20028;-74
2021/01/06 15:30:09;;;;;;;;;;;;;;;;;;5051232;28;20435;-74
2021/01/06 15:32:36;;;;;;;;;;;;;;;;;;5050886;28;19930;-74
2021/01/06 15:35:02;;;;;;;;;;;;;;;;;;5051764;28;19970;-74
2021/01/06 15:37:28;;;;;;;;;;;;;;;;;;5054117;28;19958;-74
2021/01/06 15:39:53;;;;;;;;;;;;;;;;;;5055270;28;20001;-74
2021/01/06 15:42:19;;;;;;;;;;;;;;;;;;5076341;28;20148;-74
2021/01/06 15:44:45;;;;;;;;;;;;;;;;;;5054357;28;19956;-73
2021/01/06 15:47:11;;;;;;;;;;;;;;;;;;5052198;28;20225;-73
2021/01/06 15:49:37;;;;;;;;;;;;;;;;;;5050178;28;19955;-74
2021/01/06 15:52:03;;;;;;;;;;;;;;;;;;5053519;28;20405;-73
2021/01/06 15:54:29;;;;;;;;;;;;;;;;;;5055032;28;19962;-74
2021/01/06 15:56:55;;;;;;;;;;;;;;;;;;5054901;28;19948;-74
2021/01/06 15:59:21;;;;;;;;;;;;;;;;;;5053970;28;19940;-74
2021/01/06 16:01:47;;;;;;;;;;;;;;;;;;5055276;28;20378;-74
2021/01/06 16:04:13;;;;;;;;;;;;;;;;;;5054217;28;19966;-74
2021/01/06 16:06:39;;;;;;;;;;;;;;;;;;5050641;28;19974;-74
2021/01/06 16:09:04;;;;;;;;;;;;;;;;;;5057818;28;19943;-74
2021/01/06 16:11:30;;;;;;;;;;;;;;;;;;5048829;28;19952;-74
2021/01/06 16:13:56;;;;;;;;;;;;;;;;;;5056013;28;19954;-74
2021/01/06 16:16:22;;;;;;;;;;;;;;;;;;5054146;28;19954;-74
2021/01/06 16:18:48;;;;;;;;;;;;;;;;;;5054970;28;19930;-74
2021/01/06 16:21:14;;;;;;;;;;;;;;;;;;5054660;28;19912;-75
2021/01/06 16:23:40;;;;;;;;;;;;;;;;;;5054109;28;19962;-74
2021/01/06 16:26:06;;;;;;;;;;;;;;;;;;5055998;28;19963;-75
2021/01/06 16:28:32;;;;;;;;;;;;;;;;;;5054527;28;19951;-74
2021/01/06 16:30:58;;;;;;;;;;;;;;;;;;5054429;28;19934;-74
2021/01/06 16:33:24;;;;;;;;;;;;;;;;;;5072536;28;19952;-74
2021/01/06 16:35:50;;;;;;;;;;;;;;;;;;5053290;28;19916;-74